sensor_id;sensor_type;location;lat;lon;timestamp;P1;durP1;ratioP1;P2;durP2;ratioP2
52414;SDS011;38340;52.964;6.086;2023-08-21T00:01:06;3.60;;;2.22;;
52414;SDS011;38340;52.964;6.086;2023-08-21T00:03:32;2.97;;;2.20;;
52414;SDS011;38340;52.964;6.086;2023-08-21T00:05:59;4.15;;;2.65;;
52414;SDS011;38340;52.964;6.086;2023-08-21T00:08:24;5.15;;;3.13;;
52414;SDS011;38340;52.964;6.086;2023-08-21T00:10:50;4.85;;;3.05;;
52414;SDS011;38340;52.964;6.086;2023-08-21T00:13:16;5.13;;;2.90;;
52414;SDS011;38340;52.964;6.086;2023-08-21T00:15:41;3.97;;;2.63;;
52414;SDS011;38340;52.964;6.086;2023-08-21T00:18:07;3.25;;;2.08;;
52414;SDS011;38340;52.964;6.086;2023-08-21T00:20:33;3.95;;;2.80;;
52414;SDS011;38340;52.964;6.086;2023-08-21T00:22:58;2.78;;;2.20;;
52414;SDS011;38340;52.964;6.086;2023-08-21T00:25:24;2.65;;;2.35;;
52414;SDS011;38340;52.964;6.086;2023-08-21T00:27:50;3.28;;;2.38;;
52414;SDS011;38340;52.964;6.086;2023-08-21T00:30:15;5.70;;;3.00;;
52414;SDS011;38340;52.964;6.086;2023-08-21T00:32:41;3.17;;;2.22;;
52414;SDS011;38340;52.964;6.086;2023-08-21T00:35:07;3.53;;;2.45;;
52414;SDS011;38340;52.964;6.086;2023-08-21T00:37:33;3.30;;;2.30;;
52414;SDS011;38340;52.964;6.086;2023-08-21T00:39:59;3.40;;;2.20;;
52414;SDS011;38340;52.964;6.086;2023-08-21T00:42:25;3.30;;;2.30;;
52414;SDS011;38340;52.964;6.086;2023-08-21T00:44:51;3.67;;;2.83;;
52414;SDS011;38340;52.964;6.086;2023-08-21T00:47:17;3.90;;;2.60;;
52414;SDS011;38340;52.964;6.086;2023-08-21T00:49:44;4.63;;;2.97;;
52414;SDS011;38340;52.964;6.086;2023-08-21T00:52:10;7.25;;;3.25;;
52414;SDS011;38340;52.964;6.086;2023-08-21T00:54:39;4.30;;;2.75;;
52414;SDS011;38340;52.964;6.086;2023-08-21T00:57:05;3.20;;;2.42;;
52414;SDS011;38340;52.964;6.086;2023-08-21T00:59:31;3.17;;;2.50;;
52414;SDS011;38340;52.964;6.086;2023-08-21T01:01:57;3.75;;;2.72;;
52414;SDS011;38340;52.964;6.086;2023-08-21T01:04:22;4.25;;;3.55;;
52414;SDS011;38340;52.964;6.086;2023-08-21T01:06:48;4.13;;;3.50;;
52414;SDS011;38340;52.964;6.086;2023-08-21T01:09:22;3.35;;;2.88;;
52414;SDS011;38340;52.964;6.086;2023-08-21T01:11:58;4.03;;;3.00;;
52414;SDS011;38340;52.964;6.086;2023-08-21T01:17:16;3.05;;;2.72;;
52414;SDS011;38340;52.964;6.086;2023-08-21T01:19:46;2.95;;;2.45;;
52414;SDS011;38340;52.964;6.086;2023-08-21T01:22:13;2.95;;;2.63;;
52414;SDS011;38340;52.964;6.086;2023-08-21T01:24:39;3.10;;;2.60;;
52414;SDS011;38340;52.964;6.086;2023-08-21T01:27:05;3.25;;;2.50;;
52414;SDS011;38340;52.964;6.086;2023-08-21T01:29:31;3.63;;;3.17;;
52414;SDS011;38340;52.964;6.086;2023-08-21T01:34:38;3.65;;;3.03;;
52414;SDS011;38340;52.964;6.086;2023-08-21T01:37:05;2.80;;;2.40;;
52414;SDS011;38340;52.964;6.086;2023-08-21T01:39:32;3.25;;;2.50;;
52414;SDS011;38340;52.964;6.086;2023-08-21T01:41:58;5.15;;;2.63;;
52414;SDS011;38340;52.964;6.086;2023-08-21T01:44:24;2.70;;;2.35;;
52414;SDS011;38340;52.964;6.086;2023-08-21T01:46:51;3.33;;;2.30;;
52414;SDS011;38340;52.964;6.086;2023-08-21T01:49:18;2.67;;;2.20;;
52414;SDS011;38340;52.964;6.086;2023-08-21T01:51:44;2.60;;;2.28;;
52414;SDS011;38340;52.964;6.086;2023-08-21T01:54:10;2.80;;;2.20;;
52414;SDS011;38340;52.964;6.086;2023-08-21T01:56:36;3.58;;;1.90;;
52414;SDS011;38340;52.964;6.086;2023-08-21T01:59:03;6.78;;;3.50;;
52414;SDS011;38340;52.964;6.086;2023-08-21T02:01:29;8.27;;;4.93;;
52414;SDS011;38340;52.964;6.086;2023-08-21T02:03:55;11.95;;;5.10;;
52414;SDS011;38340;52.964;6.086;2023-08-21T02:06:21;6.70;;;4.65;;
52414;SDS011;38340;52.964;6.086;2023-08-21T02:08:48;4.43;;;3.35;;
52414;SDS011;38340;52.964;6.086;2023-08-21T02:11:14;7.13;;;3.78;;
52414;SDS011;38340;52.964;6.086;2023-08-21T02:13:40;5.78;;;3.70;;
52414;SDS011;38340;52.964;6.086;2023-08-21T02:16:05;6.10;;;4.28;;
52414;SDS011;38340;52.964;6.086;2023-08-21T02:18:31;10.30;;;6.05;;
52414;SDS011;38340;52.964;6.086;2023-08-21T02:20:57;12.05;;;7.70;;
52414;SDS011;38340;52.964;6.086;2023-08-21T02:23:23;10.40;;;7.32;;
52414;SDS011;38340;52.964;6.086;2023-08-21T02:25:49;11.70;;;6.70;;
52414;SDS011;38340;52.964;6.086;2023-08-21T02:28:15;9.07;;;6.13;;
52414;SDS011;38340;52.964;6.086;2023-08-21T02:30:41;8.60;;;5.93;;
52414;SDS011;38340;52.964;6.086;2023-08-21T02:33:07;8.60;;;6.25;;
52414;SDS011;38340;52.964;6.086;2023-08-21T02:35:33;8.10;;;6.05;;
52414;SDS011;38340;52.964;6.086;2023-08-21T02:37:59;9.43;;;4.72;;
52414;SDS011;38340;52.964;6.086;2023-08-21T02:40:24;6.95;;;4.32;;
52414;SDS011;38340;52.964;6.086;2023-08-21T02:42:50;6.93;;;4.28;;
52414;SDS011;38340;52.964;6.086;2023-08-21T02:45:15;8.30;;;6.32;;
52414;SDS011;38340;52.964;6.086;2023-08-21T02:47:41;8.00;;;4.80;;
52414;SDS011;38340;52.964;6.086;2023-08-21T02:50:08;6.78;;;4.85;;
52414;SDS011;38340;52.964;6.086;2023-08-21T02:52:35;10.23;;;5.07;;
52414;SDS011;38340;52.964;6.086;2023-08-21T02:55:01;6.70;;;4.13;;
52414;SDS011;38340;52.964;6.086;2023-08-21T02:57:27;5.88;;;3.85;;
52414;SDS011;38340;52.964;6.086;2023-08-21T02:59:54;6.72;;;4.03;;
52414;SDS011;38340;52.964;6.086;2023-08-21T03:02:20;9.40;;;4.72;;
52414;SDS011;38340;52.964;6.086;2023-08-21T03:04:47;6.90;;;4.18;;
52414;SDS011;38340;52.964;6.086;2023-08-21T03:07:13;5.68;;;4.13;;
52414;SDS011;38340;52.964;6.086;2023-08-21T03:09:40;6.18;;;3.75;;
52414;SDS011;38340;52.964;6.086;2023-08-21T03:12:06;8.20;;;4.07;;
52414;SDS011;38340;52.964;6.086;2023-08-21T03:14:32;7.03;;;4.25;;
52414;SDS011;38340;52.964;6.086;2023-08-21T03:16:58;5.18;;;4.50;;
52414;SDS011;38340;52.964;6.086;2023-08-21T03:19:24;10.38;;;6.10;;
52414;SDS011;38340;52.964;6.086;2023-08-21T03:21:50;8.20;;;4.80;;
52414;SDS011;38340;52.964;6.086;2023-08-21T03:24:16;9.90;;;6.88;;
52414;SDS011;38340;52.964;6.086;2023-08-21T03:26:42;8.82;;;5.13;;
52414;SDS011;38340;52.964;6.086;2023-08-21T03:29:08;9.98;;;4.60;;
52414;SDS011;38340;52.964;6.086;2023-08-21T03:31:33;7.22;;;5.47;;
52414;SDS011;38340;52.964;6.086;2023-08-21T03:33:59;8.75;;;4.18;;
52414;SDS011;38340;52.964;6.086;2023-08-21T03:36:25;5.97;;;3.40;;
52414;SDS011;38340;52.964;6.086;2023-08-21T03:39:02;8.02;;;3.85;;
52414;SDS011;38340;52.964;6.086;2023-08-21T03:41:29;6.55;;;3.45;;
52414;SDS011;38340;52.964;6.086;2023-08-21T03:43:54;7.05;;;3.53;;
52414;SDS011;38340;52.964;6.086;2023-08-21T03:46:20;7.95;;;4.43;;
52414;SDS011;38340;52.964;6.086;2023-08-21T03:48:46;5.45;;;3.90;;
52414;SDS011;38340;52.964;6.086;2023-08-21T03:51:11;4.68;;;3.15;;
52414;SDS011;38340;52.964;6.086;2023-08-21T03:53:37;4.68;;;2.90;;
52414;SDS011;38340;52.964;6.086;2023-08-21T03:56:03;3.50;;;2.90;;
52414;SDS011;38340;52.964;6.086;2023-08-21T03:58:29;3.80;;;2.90;;
52414;SDS011;38340;52.964;6.086;2023-08-21T04:00:55;5.57;;;2.92;;
52414;SDS011;38340;52.964;6.086;2023-08-21T04:03:20;4.35;;;3.10;;
52414;SDS011;38340;52.964;6.086;2023-08-21T04:05:46;4.22;;;2.60;;
52414;SDS011;38340;52.964;6.086;2023-08-21T04:08:12;5.97;;;2.70;;
52414;SDS011;38340;52.964;6.086;2023-08-21T04:10:38;4.25;;;2.53;;
52414;SDS011;38340;52.964;6.086;2023-08-21T04:13:04;7.50;;;2.95;;
52414;SDS011;38340;52.964;6.086;2023-08-21T04:15:30;4.10;;;2.78;;
52414;SDS011;38340;52.964;6.086;2023-08-21T04:17:56;5.93;;;2.55;;
52414;SDS011;38340;52.964;6.086;2023-08-21T04:20:22;5.13;;;2.67;;
52414;SDS011;38340;52.964;6.086;2023-08-21T04:22:48;2.72;;;2.17;;
52414;SDS011;38340;52.964;6.086;2023-08-21T04:25:14;3.55;;;2.45;;
52414;SDS011;38340;52.964;6.086;2023-08-21T04:27:40;3.05;;;2.30;;
52414;SDS011;38340;52.964;6.086;2023-08-21T04:30:06;5.78;;;2.55;;
52414;SDS011;38340;52.964;6.086;2023-08-21T04:32:33;3.97;;;2.97;;
52414;SDS011;38340;52.964;6.086;2023-08-21T04:34:58;7.22;;;2.92;;
52414;SDS011;38340;52.964;6.086;2023-08-21T04:37:24;4.57;;;2.60;;
52414;SDS011;38340;52.964;6.086;2023-08-21T04:39:50;3.38;;;2.58;;
52414;SDS011;38340;52.964;6.086;2023-08-21T04:42:17;9.02;;;3.05;;
52414;SDS011;38340;52.964;6.086;2023-08-21T04:44:42;4.15;;;2.40;;
52414;SDS011;38340;52.964;6.086;2023-08-21T04:47:26;5.78;;;2.85;;
52414;SDS011;38340;52.964;6.086;2023-08-21T04:49:52;3.15;;;2.63;;
52414;SDS011;38340;52.964;6.086;2023-08-21T04:52:20;3.42;;;2.97;;
52414;SDS011;38340;52.964;6.086;2023-08-21T04:54:49;4.53;;;2.75;;
52414;SDS011;38340;52.964;6.086;2023-08-21T04:57:15;5.45;;;2.92;;
52414;SDS011;38340;52.964;6.086;2023-08-21T04:59:42;5.93;;;3.20;;
52414;SDS011;38340;52.964;6.086;2023-08-21T05:02:08;4.85;;;2.42;;
52414;SDS011;38340;52.964;6.086;2023-08-21T05:04:36;5.05;;;3.00;;
52414;SDS011;38340;52.964;6.086;2023-08-21T05:07:02;6.53;;;3.35;;
52414;SDS011;38340;52.964;6.086;2023-08-21T05:09:28;6.47;;;2.90;;
52414;SDS011;38340;52.964;6.086;2023-08-21T05:11:54;4.30;;;3.03;;
52414;SDS011;38340;52.964;6.086;2023-08-21T05:14:20;4.63;;;3.13;;
52414;SDS011;38340;52.964;6.086;2023-08-21T05:16:47;4.53;;;3.03;;
52414;SDS011;38340;52.964;6.086;2023-08-21T05:19:14;4.57;;;2.85;;
52414;SDS011;38340;52.964;6.086;2023-08-21T05:21:39;9.25;;;2.97;;
52414;SDS011;38340;52.964;6.086;2023-08-21T05:24:05;6.43;;;3.53;;
52414;SDS011;38340;52.964;6.086;2023-08-21T05:26:31;5.30;;;3.80;;
52414;SDS011;38340;52.964;6.086;2023-08-21T05:28:56;7.10;;;3.47;;
52414;SDS011;38340;52.964;6.086;2023-08-21T05:31:22;7.57;;;3.33;;
52414;SDS011;38340;52.964;6.086;2023-08-21T05:33:48;7.45;;;3.55;;
52414;SDS011;38340;52.964;6.086;2023-08-21T05:36:13;7.32;;;4.13;;
52414;SDS011;38340;52.964;6.086;2023-08-21T05:38:39;9.07;;;4.03;;
52414;SDS011;38340;52.964;6.086;2023-08-21T05:41:05;6.55;;;3.58;;
52414;SDS011;38340;52.964;6.086;2023-08-21T05:43:31;4.97;;;3.58;;
52414;SDS011;38340;52.964;6.086;2023-08-21T05:45:57;8.52;;;3.40;;
52414;SDS011;38340;52.964;6.086;2023-08-21T05:48:22;5.28;;;3.13;;
52414;SDS011;38340;52.964;6.086;2023-08-21T05:50:51;8.38;;;3.95;;
52414;SDS011;38340;52.964;6.086;2023-08-21T05:53:18;7.78;;;3.92;;
52414;SDS011;38340;52.964;6.086;2023-08-21T05:55:44;6.65;;;3.13;;
52414;SDS011;38340;52.964;6.086;2023-08-21T05:58:09;6.80;;;3.35;;
52414;SDS011;38340;52.964;6.086;2023-08-21T06:00:35;8.38;;;4.07;;
52414;SDS011;38340;52.964;6.086;2023-08-21T06:03:03;6.65;;;4.30;;
52414;SDS011;38340;52.964;6.086;2023-08-21T06:05:29;9.02;;;4.82;;
52414;SDS011;38340;52.964;6.086;2023-08-21T06:07:55;13.00;;;4.55;;
52414;SDS011;38340;52.964;6.086;2023-08-21T06:10:20;10.98;;;4.78;;
52414;SDS011;38340;52.964;6.086;2023-08-21T06:12:46;9.63;;;4.80;;
52414;SDS011;38340;52.964;6.086;2023-08-21T06:15:13;11.00;;;4.72;;
52414;SDS011;38340;52.964;6.086;2023-08-21T06:17:39;8.95;;;4.55;;
52414;SDS011;38340;52.964;6.086;2023-08-21T06:20:06;12.18;;;4.40;;
52414;SDS011;38340;52.964;6.086;2023-08-21T06:22:34;12.05;;;4.32;;
52414;SDS011;38340;52.964;6.086;2023-08-21T06:25:00;14.57;;;4.95;;
52414;SDS011;38340;52.964;6.086;2023-08-21T06:27:26;8.98;;;4.80;;
52414;SDS011;38340;52.964;6.086;2023-08-21T06:29:52;8.38;;;4.20;;
52414;SDS011;38340;52.964;6.086;2023-08-21T06:32:18;9.52;;;5.03;;
52414;SDS011;38340;52.964;6.086;2023-08-21T06:34:43;8.02;;;4.07;;
52414;SDS011;38340;52.964;6.086;2023-08-21T06:37:09;9.38;;;4.38;;
52414;SDS011;38340;52.964;6.086;2023-08-21T06:39:35;12.60;;;4.25;;
52414;SDS011;38340;52.964;6.086;2023-08-21T06:42:00;12.02;;;4.32;;
52414;SDS011;38340;52.964;6.086;2023-08-21T06:44:26;11.55;;;4.50;;
52414;SDS011;38340;52.964;6.086;2023-08-21T06:46:52;11.10;;;4.03;;
52414;SDS011;38340;52.964;6.086;2023-08-21T06:49:18;7.32;;;3.50;;
52414;SDS011;38340;52.964;6.086;2023-08-21T06:51:43;8.57;;;4.43;;
52414;SDS011;38340;52.964;6.086;2023-08-21T06:54:09;9.35;;;4.03;;
52414;SDS011;38340;52.964;6.086;2023-08-21T06:56:35;8.40;;;4.18;;
52414;SDS011;38340;52.964;6.086;2023-08-21T06:59:01;6.95;;;4.07;;
52414;SDS011;38340;52.964;6.086;2023-08-21T07:01:27;10.07;;;4.10;;
52414;SDS011;38340;52.964;6.086;2023-08-21T07:03:53;6.15;;;3.60;;
52414;SDS011;38340;52.964;6.086;2023-08-21T07:06:19;10.45;;;4.65;;
52414;SDS011;38340;52.964;6.086;2023-08-21T07:08:45;7.03;;;3.45;;
52414;SDS011;38340;52.964;6.086;2023-08-21T07:11:10;11.55;;;4.15;;
52414;SDS011;38340;52.964;6.086;2023-08-21T07:13:37;9.43;;;4.00;;
52414;SDS011;38340;52.964;6.086;2023-08-21T07:16:03;6.88;;;4.25;;
52414;SDS011;38340;52.964;6.086;2023-08-21T07:18:33;9.38;;;3.72;;
52414;SDS011;38340;52.964;6.086;2023-08-21T07:21:00;10.02;;;4.15;;
52414;SDS011;38340;52.964;6.086;2023-08-21T07:23:26;7.05;;;3.75;;
52414;SDS011;38340;52.964;6.086;2023-08-21T07:25:52;6.00;;;3.75;;
52414;SDS011;38340;52.964;6.086;2023-08-21T07:28:18;5.15;;;3.50;;
52414;SDS011;38340;52.964;6.086;2023-08-21T07:30:44;7.47;;;4.30;;
52414;SDS011;38340;52.964;6.086;2023-08-21T07:33:09;11.30;;;3.67;;
52414;SDS011;38340;52.964;6.086;2023-08-21T07:35:35;6.50;;;3.70;;
52414;SDS011;38340;52.964;6.086;2023-08-21T07:38:01;5.85;;;3.83;;
52414;SDS011;38340;52.964;6.086;2023-08-21T07:40:27;6.55;;;3.58;;
52414;SDS011;38340;52.964;6.086;2023-08-21T07:42:53;9.40;;;3.80;;
52414;SDS011;38340;52.964;6.086;2023-08-21T07:45:19;6.13;;;4.20;;
52414;SDS011;38340;52.964;6.086;2023-08-21T07:47:44;7.35;;;3.83;;
52414;SDS011;38340;52.964;6.086;2023-08-21T07:50:10;7.72;;;3.90;;
52414;SDS011;38340;52.964;6.086;2023-08-21T07:52:36;4.93;;;3.60;;
52414;SDS011;38340;52.964;6.086;2023-08-21T07:55:02;9.23;;;3.85;;
52414;SDS011;38340;52.964;6.086;2023-08-21T07:57:28;8.52;;;3.97;;
52414;SDS011;38340;52.964;6.086;2023-08-21T07:59:55;5.05;;;3.17;;
52414;SDS011;38340;52.964;6.086;2023-08-21T08:02:21;6.38;;;3.47;;
52414;SDS011;38340;52.964;6.086;2023-08-21T08:04:48;7.32;;;3.00;;
52414;SDS011;38340;52.964;6.086;2023-08-21T08:07:13;6.70;;;3.22;;
52414;SDS011;38340;52.964;6.086;2023-08-21T08:09:39;9.00;;;3.28;;
52414;SDS011;38340;52.964;6.086;2023-08-21T08:12:05;5.50;;;3.00;;
52414;SDS011;38340;52.964;6.086;2023-08-21T08:14:31;5.80;;;3.05;;
52414;SDS011;38340;52.964;6.086;2023-08-21T08:16:57;6.22;;;3.20;;
52414;SDS011;38340;52.964;6.086;2023-08-21T08:19:22;10.82;;;4.00;;
52414;SDS011;38340;52.964;6.086;2023-08-21T08:21:48;7.50;;;3.28;;
52414;SDS011;38340;52.964;6.086;2023-08-21T08:24:14;8.27;;;3.75;;
52414;SDS011;38340;52.964;6.086;2023-08-21T08:26:40;6.60;;;3.45;;
52414;SDS011;38340;52.964;6.086;2023-08-21T08:29:07;7.00;;;3.90;;
52414;SDS011;38340;52.964;6.086;2023-08-21T08:31:33;7.60;;;3.70;;
52414;SDS011;38340;52.964;6.086;2023-08-21T08:33:59;6.63;;;3.33;;
52414;SDS011;38340;52.964;6.086;2023-08-21T08:36:24;5.57;;;3.33;;
52414;SDS011;38340;52.964;6.086;2023-08-21T08:38:50;5.45;;;3.38;;
52414;SDS011;38340;52.964;6.086;2023-08-21T08:41:24;6.70;;;3.10;;
52414;SDS011;38340;52.964;6.086;2023-08-21T08:43:58;6.53;;;3.20;;
52414;SDS011;38340;52.964;6.086;2023-08-21T08:46:26;7.85;;;3.33;;
52414;SDS011;38340;52.964;6.086;2023-08-21T08:48:54;5.70;;;3.05;;
52414;SDS011;38340;52.964;6.086;2023-08-21T08:51:21;8.30;;;3.05;;
52414;SDS011;38340;52.964;6.086;2023-08-21T08:53:49;6.47;;;2.72;;
52414;SDS011;38340;52.964;6.086;2023-08-21T08:56:15;4.70;;;3.13;;
52414;SDS011;38340;52.964;6.086;2023-08-21T08:58:41;7.65;;;3.20;;
52414;SDS011;38340;52.964;6.086;2023-08-21T09:01:08;5.38;;;3.45;;
52414;SDS011;38340;52.964;6.086;2023-08-21T09:03:36;8.07;;;3.85;;
52414;SDS011;38340;52.964;6.086;2023-08-21T09:06:02;7.95;;;3.45;;
52414;SDS011;38340;52.964;6.086;2023-08-21T09:08:29;9.80;;;3.70;;
52414;SDS011;38340;52.964;6.086;2023-08-21T09:10:54;8.68;;;4.22;;
52414;SDS011;38340;52.964;6.086;2023-08-21T09:13:20;8.57;;;4.40;;
52414;SDS011;38340;52.964;6.086;2023-08-21T09:15:51;11.63;;;5.13;;
52414;SDS011;38340;52.964;6.086;2023-08-21T09:18:18;8.85;;;5.05;;
52414;SDS011;38340;52.964;6.086;2023-08-21T09:20:44;12.27;;;5.82;;
52414;SDS011;38340;52.964;6.086;2023-08-21T09:23:17;14.27;;;6.90;;
52414;SDS011;38340;52.964;6.086;2023-08-21T09:25:44;12.68;;;7.05;;
52414;SDS011;38340;52.964;6.086;2023-08-21T09:28:14;10.32;;;6.70;;
52414;SDS011;38340;52.964;6.086;2023-08-21T09:30:53;14.65;;;6.88;;
52414;SDS011;38340;52.964;6.086;2023-08-21T09:33:20;14.45;;;6.90;;
52414;SDS011;38340;52.964;6.086;2023-08-21T09:35:47;14.88;;;8.93;;
52414;SDS011;38340;52.964;6.086;2023-08-21T09:38:13;13.07;;;7.10;;
52414;SDS011;38340;52.964;6.086;2023-08-21T09:40:42;12.38;;;5.53;;
52414;SDS011;38340;52.964;6.086;2023-08-21T09:43:09;11.32;;;5.10;;
52414;SDS011;38340;52.964;6.086;2023-08-21T09:45:38;8.43;;;4.75;;
52414;SDS011;38340;52.964;6.086;2023-08-21T09:48:04;11.75;;;5.40;;
52414;SDS011;38340;52.964;6.086;2023-08-21T09:50:31;9.07;;;4.40;;
52414;SDS011;38340;52.964;6.086;2023-08-21T09:52:57;9.10;;;4.05;;
52414;SDS011;38340;52.964;6.086;2023-08-21T09:55:24;9.00;;;3.30;;
52414;SDS011;38340;52.964;6.086;2023-08-21T09:57:55;6.28;;;3.10;;
52414;SDS011;38340;52.964;6.086;2023-08-21T10:00:27;8.98;;;3.40;;
52414;SDS011;38340;52.964;6.086;2023-08-21T10:02:55;8.70;;;3.92;;
52414;SDS011;38340;52.964;6.086;2023-08-21T10:05:26;8.77;;;4.32;;
52414;SDS011;38340;52.964;6.086;2023-08-21T10:07:53;9.40;;;3.72;;
52414;SDS011;38340;52.964;6.086;2023-08-21T10:10:20;10.32;;;3.70;;
52414;SDS011;38340;52.964;6.086;2023-08-21T10:12:47;5.72;;;3.03;;
52414;SDS011;38340;52.964;6.086;2023-08-21T10:15:13;7.00;;;3.50;;
52414;SDS011;38340;52.964;6.086;2023-08-21T10:17:41;8.73;;;3.90;;
52414;SDS011;38340;52.964;6.086;2023-08-21T10:20:08;7.85;;;3.90;;
52414;SDS011;38340;52.964;6.086;2023-08-21T10:22:48;9.85;;;4.40;;
52414;SDS011;38340;52.964;6.086;2023-08-21T10:25:21;9.48;;;4.13;;
52414;SDS011;38340;52.964;6.086;2023-08-21T10:27:56;8.43;;;4.57;;
52414;SDS011;38340;52.964;6.086;2023-08-21T10:30:25;6.75;;;4.10;;
52414;SDS011;38340;52.964;6.086;2023-08-21T10:32:52;7.95;;;4.07;;
52414;SDS011;38340;52.964;6.086;2023-08-21T10:35:23;7.72;;;4.63;;
52414;SDS011;38340;52.964;6.086;2023-08-21T10:38:05;7.80;;;4.30;;
52414;SDS011;38340;52.964;6.086;2023-08-21T10:40:33;8.55;;;4.20;;
52414;SDS011;38340;52.964;6.086;2023-08-21T10:43:00;8.27;;;4.32;;
52414;SDS011;38340;52.964;6.086;2023-08-21T10:45:26;6.20;;;4.10;;
52414;SDS011;38340;52.964;6.086;2023-08-21T10:47:51;9.75;;;4.30;;
52414;SDS011;38340;52.964;6.086;2023-08-21T10:50:17;9.80;;;4.88;;
52414;SDS011;38340;52.964;6.086;2023-08-21T10:52:43;9.50;;;4.75;;
52414;SDS011;38340;52.964;6.086;2023-08-21T10:55:14;9.32;;;4.47;;
52414;SDS011;38340;52.964;6.086;2023-08-21T10:57:40;9.05;;;4.70;;
52414;SDS011;38340;52.964;6.086;2023-08-21T11:00:10;7.82;;;4.25;;
52414;SDS011;38340;52.964;6.086;2023-08-21T11:02:43;10.77;;;4.27;;
52414;SDS011;38340;52.964;6.086;2023-08-21T11:05:11;6.55;;;3.63;;
52414;SDS011;38340;52.964;6.086;2023-08-21T11:07:38;7.80;;;4.00;;
52414;SDS011;38340;52.964;6.086;2023-08-21T11:10:09;11.18;;;4.38;;
52414;SDS011;38340;52.964;6.086;2023-08-21T11:12:38;9.02;;;3.55;;
52414;SDS011;38340;52.964;6.086;2023-08-21T11:17:38;17.95;;;3.30;;
52414;SDS011;38340;52.964;6.086;2023-08-21T11:20:04;6.28;;;3.20;;
52414;SDS011;38340;52.964;6.086;2023-08-21T11:22:31;7.45;;;2.92;;
52414;SDS011;38340;52.964;6.086;2023-08-21T11:24:57;6.45;;;3.20;;
52414;SDS011;38340;52.964;6.086;2023-08-21T11:27:23;6.05;;;3.70;;
52414;SDS011;38340;52.964;6.086;2023-08-21T11:29:50;8.20;;;2.92;;
52414;SDS011;38340;52.964;6.086;2023-08-21T11:32:17;6.30;;;3.15;;
52414;SDS011;38340;52.964;6.086;2023-08-21T11:34:54;7.18;;;3.03;;
52414;SDS011;38340;52.964;6.086;2023-08-21T11:37:21;3.60;;;2.83;;
52414;SDS011;38340;52.964;6.086;2023-08-21T11:39:49;6.40;;;3.25;;
52414;SDS011;38340;52.964;6.086;2023-08-21T11:42:19;6.75;;;3.17;;
52414;SDS011;38340;52.964;6.086;2023-08-21T11:44:51;11.52;;;3.85;;
52414;SDS011;38340;52.964;6.086;2023-08-21T11:47:18;4.53;;;3.38;;
52414;SDS011;38340;52.964;6.086;2023-08-21T11:49:45;8.63;;;3.05;;
52414;SDS011;38340;52.964;6.086;2023-08-21T11:52:21;6.05;;;2.83;;
52414;SDS011;38340;52.964;6.086;2023-08-21T11:54:50;8.20;;;3.03;;
52414;SDS011;38340;52.964;6.086;2023-08-21T11:57:17;7.03;;;2.70;;
52414;SDS011;38340;52.964;6.086;2023-08-21T11:59:43;5.18;;;2.80;;
52414;SDS011;38340;52.964;6.086;2023-08-21T12:02:16;6.97;;;3.20;;
52414;SDS011;38340;52.964;6.086;2023-08-21T12:04:51;4.15;;;2.83;;
52414;SDS011;38340;52.964;6.086;2023-08-21T12:07:18;3.67;;;2.50;;
52414;SDS011;38340;52.964;6.086;2023-08-21T12:09:47;3.83;;;2.38;;
52414;SDS011;38340;52.964;6.086;2023-08-21T12:12:16;3.83;;;2.58;;
52414;SDS011;38340;52.964;6.086;2023-08-21T12:14:42;4.47;;;2.67;;
52414;SDS011;38340;52.964;6.086;2023-08-21T12:17:07;4.93;;;2.60;;
52414;SDS011;38340;52.964;6.086;2023-08-21T12:19:33;4.25;;;2.63;;
52414;SDS011;38340;52.964;6.086;2023-08-21T12:21:59;2.85;;;2.30;;
52414;SDS011;38340;52.964;6.086;2023-08-21T12:24:25;7.40;;;2.95;;
52414;SDS011;38340;52.964;6.086;2023-08-21T12:26:50;4.75;;;2.63;;
52414;SDS011;38340;52.964;6.086;2023-08-21T12:29:16;3.40;;;2.45;;
52414;SDS011;38340;52.964;6.086;2023-08-21T12:31:42;4.07;;;2.45;;
52414;SDS011;38340;52.964;6.086;2023-08-21T12:34:08;2.85;;;2.50;;
52414;SDS011;38340;52.964;6.086;2023-08-21T12:36:34;5.05;;;2.40;;
52414;SDS011;38340;52.964;6.086;2023-08-21T12:39:02;3.28;;;2.42;;
52414;SDS011;38340;52.964;6.086;2023-08-21T12:41:29;2.65;;;2.40;;
52414;SDS011;38340;52.964;6.086;2023-08-21T12:43:54;5.47;;;2.63;;
52414;SDS011;38340;52.964;6.086;2023-08-21T12:46:20;5.65;;;2.60;;
52414;SDS011;38340;52.964;6.086;2023-08-21T12:48:46;4.03;;;2.63;;
52414;SDS011;38340;52.964;6.086;2023-08-21T12:51:13;7.70;;;2.70;;
52414;SDS011;38340;52.964;6.086;2023-08-21T12:53:38;5.53;;;2.85;;
52414;SDS011;38340;52.964;6.086;2023-08-21T12:56:04;5.15;;;2.47;;
52414;SDS011;38340;52.964;6.086;2023-08-21T12:58:30;3.45;;;2.47;;
52414;SDS011;38340;52.964;6.086;2023-08-21T13:00:56;3.85;;;2.58;;
52414;SDS011;38340;52.964;6.086;2023-08-21T13:03:22;5.15;;;3.03;;
52414;SDS011;38340;52.964;6.086;2023-08-21T13:05:48;5.68;;;2.80;;
52414;SDS011;38340;52.964;6.086;2023-08-21T13:08:14;5.38;;;2.67;;
52414;SDS011;38340;52.964;6.086;2023-08-21T13:10:40;6.65;;;2.80;;
52414;SDS011;38340;52.964;6.086;2023-08-21T13:13:06;3.88;;;2.65;;
52414;SDS011;38340;52.964;6.086;2023-08-21T13:15:31;5.75;;;3.00;;
52414;SDS011;38340;52.964;6.086;2023-08-21T13:17:57;3.58;;;2.63;;
52414;SDS011;38340;52.964;6.086;2023-08-21T13:20:23;5.43;;;2.55;;
52414;SDS011;38340;52.964;6.086;2023-08-21T13:22:52;6.47;;;2.70;;
52414;SDS011;38340;52.964;6.086;2023-08-21T13:25:18;4.88;;;2.30;;
52414;SDS011;38340;52.964;6.086;2023-08-21T13:27:45;5.40;;;2.63;;
52414;SDS011;38340;52.964;6.086;2023-08-21T13:30:11;6.85;;;2.80;;
52414;SDS011;38340;52.964;6.086;2023-08-21T13:32:38;3.60;;;2.40;;
52414;SDS011;38340;52.964;6.086;2023-08-21T13:35:04;6.07;;;2.58;;
52414;SDS011;38340;52.964;6.086;2023-08-21T13:37:32;7.60;;;2.97;;
52414;SDS011;38340;52.964;6.086;2023-08-21T13:39:58;4.40;;;2.78;;
52414;SDS011;38340;52.964;6.086;2023-08-21T13:42:25;4.53;;;2.50;;
52414;SDS011;38340;52.964;6.086;2023-08-21T13:44:55;2.70;;;2.33;;
52414;SDS011;38340;52.964;6.086;2023-08-21T13:47:22;2.55;;;2.25;;
52414;SDS011;38340;52.964;6.086;2023-08-21T13:49:48;4.85;;;2.63;;
52414;SDS011;38340;52.964;6.086;2023-08-21T13:52:13;7.38;;;2.40;;
52414;SDS011;38340;52.964;6.086;2023-08-21T13:54:39;5.47;;;2.55;;
52414;SDS011;38340;52.964;6.086;2023-08-21T13:57:04;3.88;;;2.47;;
52414;SDS011;38340;52.964;6.086;2023-08-21T13:59:30;4.97;;;2.95;;
52414;SDS011;38340;52.964;6.086;2023-08-21T14:01:56;4.63;;;2.72;;
52414;SDS011;38340;52.964;6.086;2023-08-21T14:04:21;4.35;;;2.40;;
52414;SDS011;38340;52.964;6.086;2023-08-21T14:06:47;4.90;;;2.75;;
52414;SDS011;38340;52.964;6.086;2023-08-21T14:09:13;6.25;;;3.00;;
52414;SDS011;38340;52.964;6.086;2023-08-21T14:11:38;7.43;;;2.70;;
52414;SDS011;38340;52.964;6.086;2023-08-21T14:14:04;4.70;;;2.60;;
52414;SDS011;38340;52.964;6.086;2023-08-21T14:16:30;4.82;;;2.75;;
52414;SDS011;38340;52.964;6.086;2023-08-21T14:18:55;3.33;;;2.53;;
52414;SDS011;38340;52.964;6.086;2023-08-21T14:21:21;4.70;;;2.40;;
52414;SDS011;38340;52.964;6.086;2023-08-21T14:23:47;5.22;;;2.72;;
52414;SDS011;38340;52.964;6.086;2023-08-21T14:26:12;5.20;;;2.70;;
52414;SDS011;38340;52.964;6.086;2023-08-21T14:28:38;5.30;;;2.60;;
52414;SDS011;38340;52.964;6.086;2023-08-21T14:31:03;3.55;;;2.58;;
52414;SDS011;38340;52.964;6.086;2023-08-21T14:33:29;4.25;;;2.53;;
52414;SDS011;38340;52.964;6.086;2023-08-21T14:35:55;4.40;;;2.42;;
52414;SDS011;38340;52.964;6.086;2023-08-21T14:38:22;4.35;;;2.88;;
52414;SDS011;38340;52.964;6.086;2023-08-21T14:40:47;6.10;;;2.90;;
52414;SDS011;38340;52.964;6.086;2023-08-21T14:43:14;5.47;;;2.95;;
52414;SDS011;38340;52.964;6.086;2023-08-21T14:45:39;3.80;;;2.90;;
52414;SDS011;38340;52.964;6.086;2023-08-21T14:48:05;3.83;;;3.25;;
52414;SDS011;38340;52.964;6.086;2023-08-21T14:50:31;3.33;;;2.78;;